< Cyclone 195601 1956 Season Cyclone 195603 >
Cyclone 195602 (unnamed)
General InformationTrack Information on Google Maps || ResourceGoogle EarthGE AnimationAtom FeedGeoJSON
Detalied Best Track (Time Zone = UTC)
Year Month Day Hour Lat. Long. Pressure (hPa) Wind (kt) Class Image Chart
1955 12 6 23 -20.3 166.5 1006 0 6 -- --
1955 12 7 05 -21.5 168.1 1006 0 6 -- --
1955 12 7 17 -25.9 168.0 1005 0 6 -- --
1955 12 7 23 -27.4 167.0 1005 0 6 -- --
1955 12 8 05 -28.9 166.0 1005 0 6 -- --
1955 12 8 17 -28.9 163.0 1005 0 6 -- --
1955 12 8 23 -28.7 161.4 1004 0 6 -- --
1955 12 9 05 -28.4 159.0 1003 0 6 -- --
1955 12 9 17 -27.4 158.5 1003 0 6 -- --
1955 12 9 23 -26.9 157.5 1002 0 6 -- --
1955 12 10 05 -26.4 157.0 1001 0 6 -- --
1955 12 10 17 -26.9 155.0 1001 0 6 -- --
1955 12 10 23 -27.2 154.6 1002 0 6 -- --
1955 12 11 05 -26.5 154.4 1003 0 6 -- --
1955 12 11 17 -28.2 153.8 1004 0 6 -- --
1955 12 11 23 -28.4 153.6 1004 0 6 -- --
1955 12 12 05 -28.7 153.8 1005 0 6 -- --
1955 12 12 17 -30.7 155.6 1007 0 6 -- --
1955 12 12 23 -31.9 157.0 1007 0 6 -- --
1955 12 13 05 -32.9 158.0 1007 0 6 -- --
1955 12 13 23 -33.7 161.0 1005 0 6 -- --
1955 12 14 23 -36.1 165.0 1004 0 6 -- --
1955 12 15 05 -36.9 166.0 1003 0 6 -- --
1955 12 15 23 -37.5 166.0 1005 0 6 -- --
1955 12 16 05 -37.9 166.0 1009 0 6 -- --
< Cyclone 195601 1956 Season Cyclone 195603 >

Help